Time;durP1;ratioP1;P1;durP2;ratioP2;P2;SDS_P1;SDS_P2;PMS_P1;PMS_P2;Temp;Humidity;BMP_temperature;BMP_pressure;BME280_temperature;BME280_humidity;BME280_pressure;Samples;Min_cycle;Max_cycle;Signal;HPM_P1;HPM_P2
2021/12/27 00:00:48;;;;;;;16.37;7.30;;;;;;;2.07;38.68;100143.88;5359634;32;35216;-69
2021/12/27 00:03:52;;;;;;;17.70;8.23;;;;;;;2.21;38.33;100152.41;5376017;32;34425;-67
2021/12/27 00:06:59;;;;;;;18.57;7.93;;;;;;;0.63;41.19;100161.91;5373950;32;33025;-62
2021/12/27 00:10:01;;;;;;;18.00;6.73;;;;;;;1.98;38.02;100146.53;5356407;32;33853;-67
2021/12/27 00:13:05;;;;;;;18.00;8.07;;;;;;;2.05;37.36;100148.19;5386131;32;34013;-67
2021/12/27 00:16:11;;;;;;;15.67;7.33;;;;;;;1.82;38.87;100149.25;5370860;32;33219;-67
2021/12/27 00:19:14;;;;;;;19.43;7.77;;;;;;;1.87;38.75;100151.81;5377532;32;33921;-67
2021/12/27 00:22:17;;;;;;;17.27;7.30;;;;;;;1.84;38.62;100150.09;5372918;32;33856;-68
2021/12/27 00:25:20;;;;;;;17.43;7.17;;;;;;;1.20;40.03;100150.47;5381091;32;34256;-67
2021/12/27 00:28:30;;;;;;;18.67;7.27;;;;;;;0.97;40.67;100136.81;5390385;32;35080;-62
2021/12/27 00:31:41;;;;;;;16.03;7.53;;;;;;;2.31;38.36;100135.87;5378772;32;34157;-61
2021/12/27 00:34:44;;;;;;;14.98;7.00;;;;;;;1.94;38.89;100139.69;5386096;32;35595;-67
2021/12/27 00:37:47;;;;;;;16.23;7.47;;;;;;;1.23;40.79;100152.22;5381811;32;35228;-67
2021/12/27 00:40:49;;;;;;;19.00;9.70;;;;;;;1.80;39.48;100148.41;5391622;32;34145;-67
2021/12/27 00:43:57;;;;;;;15.97;8.37;;;;;;;1.06;40.65;100158.31;5371664;32;34580;-61
2021/12/27 00:47:04;;;;;;;18.23;8.13;;;;;;;1.05;41.05;100154.00;5361602;32;33947;-67
2021/12/27 00:50:08;;;;;;;20.50;8.73;;;;;;;1.25;39.93;100153.06;5381075;32;34214;-67
2021/12/27 00:53:17;;;;;;;18.10;7.87;;;;;;;1.05;40.23;100154.00;5386876;32;34309;-68
2021/12/27 00:56:19;;;;;;;17.02;8.35;;;;;;;0.97;41.29;100150.59;5387327;32;33270;-67
2021/12/27 00:59:31;;;;;;;20.60;8.43;;;;;;;1.12;41.34;100144.50;5387033;32;32960;-61
2021/12/27 01:02:44;;;;;;;17.00;8.03;;;;;;;1.07;41.34;100152.28;5354751;32;34400;-61
2021/12/27 01:05:47;;;;;;;17.40;7.90;;;;;;;1.58;39.80;100142.50;5387844;32;34081;-66
2021/12/27 01:08:50;;;;;;;17.05;7.68;;;;;;;1.81;39.83;100137.19;5365212;32;35368;-66
2021/12/27 01:18:20;;;;;;;19.47;8.57;;;;;;;2.01;39.89;100134.41;5387641;32;33044;-67
2021/12/27 01:21:24;;;;;;;21.02;9.65;;;;;;;1.60;40.81;100138.16;5376634;32;34904;-66
2021/12/27 01:24:27;;;;;;;22.80;9.47;;;;;;;1.86;40.16;100140.56;5358873;32;33936;-68
2021/12/27 01:27:43;;;;;;;23.93;9.97;;;;;;;2.10;40.11;100141.25;5381006;32;33808;-61
2021/12/27 01:30:50;;;;;;;21.80;9.63;;;;;;;1.50;41.32;100139.09;5380939;32;32815;-61
2021/12/27 01:33:57;;;;;;;22.83;10.47;;;;;;;2.06;40.45;100143.03;5383597;32;34100;-67
2021/12/27 01:37:00;;;;;;;21.80;9.85;;;;;;;1.62;41.20;100140.78;5367884;32;35040;-68
2021/12/27 01:40:18;;;;;;;21.60;10.10;;;;;;;1.53;41.18;100146.84;5365496;32;33946;-62
2021/12/27 01:43:29;;;;;;;19.93;9.50;;;;;;;0.86;42.93;100134.25;5389490;32;33639;-68
2021/12/27 01:46:32;;;;;;;25.13;10.27;;;;;;;0.96;42.91;100133.31;5369634;32;33879;-66
2021/12/27 01:49:37;;;;;;;23.30;9.80;;;;;;;1.16;42.19;100130.69;5380615;32;34426;-61
2021/12/27 01:52:46;;;;;;;22.37;10.13;;;;;;;1.06;42.86;100131.56;5396741;32;33062;-66
2021/12/27 01:55:48;;;;;;;22.17;10.90;;;;;;;0.96;43.32;100127.28;5371978;32;33782;-61
2021/12/27 01:58:54;;;;;;;21.30;10.73;;;;;;;1.00;43.50;100127.28;5391257;32;34199;-66
2021/12/27 02:01:57;;;;;;;21.13;10.53;;;;;;;1.64;41.83;100118.28;5374974;32;34670;-61
2021/12/27 02:05:03;;;;;;;22.37;11.37;;;;;;;2.35;40.23;100118.56;5389016;32;33861;-61
2021/12/27 02:08:16;;;;;;;21.03;11.00;;;;;;;1.97;40.31;100124.94;5373483;32;34527;-61
2021/12/27 02:11:26;;;;;;;27.60;11.65;;;;;;;1.71;41.76;100127.72;5360204;32;35804;-61
2021/12/27 02:14:36;;;;;;;25.50;10.88;;;;;;;2.12;40.78;100127.38;5391789;32;34263;-61
2021/12/27 02:17:43;;;;;;;24.87;11.57;;;;;;;2.11;40.78;100125.69;5385775;32;34357;-67
2021/12/27 02:20:50;;;;;;;25.47;12.50;;;;;;;1.75;41.86;100131.19;5367325;32;34514;-62
2021/12/27 02:23:57;;;;;;;25.53;12.47;;;;;;;1.57;42.57;100133.00;5350336;32;35284;-67
2021/12/27 02:27:04;;;;;;;29.73;14.43;;;;;;;0.87;44.97;100133.38;5388243;32;34357;-62
2021/12/27 02:30:13;;;;;;;26.27;13.57;;;;;;;0.86;45.58;100138.56;5386759;32;33657;-68
2021/12/27 02:33:28;;;;;;;31.97;14.47;;;;;;;1.20;45.52;100136.69;5377469;32;34640;-60
2021/12/27 02:36:38;;;;;;;30.53;15.27;;;;;;;0.74;46.51;100132.56;5362703;32;34010;-61
2021/12/27 02:39:40;;;;;;;29.63;12.93;;;;;;;0.78;46.40;100128.25;5386457;32;35614;-61
2021/12/27 02:42:54;;;;;;;29.07;14.50;;;;;;;0.35;46.95;100133.53;5403439;32;33017;-66
2021/12/27 02:46:04;;;;;;;26.87;12.65;;;;;;;0.89;45.76;100123.00;5378701;32;35379;-62
2021/12/27 02:49:07;;;;;;;32.60;13.67;;;;;;;1.08;44.82;100128.09;5385412;32;33489;-67
2021/12/27 02:52:14;;;;;;;25.33;12.47;;;;;;;0.75;45.69;100133.41;5391814;32;35428;-62
2021/12/27 02:55:18;;;;;;;25.53;12.93;;;;;;;1.66;44.13;100131.22;5348618;32;34312;-66
2021/12/27 02:58:21;;;;;;;30.65;13.95;;;;;;;1.07;45.45;100130.72;5380344;32;34503;-67
2021/12/27 03:01:24;;;;;;;29.05;14.02;;;;;;;0.83;46.36;100126.47;5385579;32;35244;-66
2021/12/27 03:04:34;;;;;;;27.30;12.73;;;;;;;1.42;45.36;100122.75;5379626;32;33874;-67
2021/12/27 03:07:48;;;;;;;31.23;14.03;;;;;;;1.01;46.14;100123.81;5381847;32;33673;-61
2021/12/27 03:10:53;;;;;;;;;;;;;;;0.91;47.46;100116.13;5366241;32;33572;-61
2021/12/27 03:13:59;;;;;;;26.63;14.00;;;;;;;1.97;45.00;100113.72;5391818;32;34301;-61
2021/12/27 03:17:03;;;;;;;29.37;14.23;;;;;;;0.99;48.27;100112.63;5381277;32;34484;-66
2021/12/27 03:20:08;;;;;;;34.03;15.00;;;;;;;0.98;49.26;100115.22;5371196;32;34605;-66
2021/12/27 03:23:10;;;;;;;30.10;15.83;;;;;;;0.94;49.48;100110.91;5368229;32;34228;-66
2021/12/27 03:26:16;;;;;;;32.67;14.80;;;;;;;0.56;51.01;100111.91;5359313;32;34266;-62
2021/12/27 03:29:25;;;;;;;34.73;15.47;;;;;;;1.06;50.21;100106.56;5357906;32;32748;-61
2021/12/27 03:32:32;;;;;;;29.40;15.93;;;;;;;0.84;50.78;100099.78;5370494;32;32937;-61
2021/12/27 03:35:39;;;;;;;28.70;15.33;;;;;;;1.58;48.93;100095.88;5361583;32;33986;-61
2021/12/27 03:38:47;;;;;;;32.63;17.10;;;;;;;1.42;49.63;100096.88;5361983;32;34414;-62
2021/12/27 03:41:53;;;;;;;31.93;15.23;;;;;;;1.40;49.88;100101.19;5381478;32;34298;-66
2021/12/27 03:45:01;;;;;;;31.40;15.67;;;;;;;1.16;50.52;100099.62;5375071;32;34105;-61
2021/12/27 03:48:06;;;;;;;32.70;16.27;;;;;;;1.60;49.68;100099.31;5375903;32;34021;-67
2021/12/27 03:51:10;;;;;;;;;;;;;;;1.60;50.14;100096.72;5388323;32;35077;-67
2021/12/27 03:54:16;;;;;;;30.93;14.93;;;;;;;1.09;51.23;100110.84;5385727;32;34217;-61
2021/12/27 03:57:22;;;;;;;30.70;15.07;;;;;;;1.40;50.85;100103.75;5369027;32;34128;-61
2021/12/27 04:01:00;;;;;;;31.20;15.57;;;;;;;0.90;51.90;100104.91;5337354;32;33188;-62
2021/12/27 04:04:03;;;;;;;29.70;15.07;;;;;;;1.21;50.70;100100.44;5348563;32;33969;-67
2021/12/27 04:07:09;;;;;;;35.27;15.23;;;;;;;1.11;50.80;100103.94;5361882;32;33842;-66
2021/12/27 04:10:19;;;;;;;31.20;16.10;;;;;;;0.89;51.74;100105.75;5339692;33;33120;-62
2021/12/27 04:13:23;;;;;;;29.77;14.67;;;;;;;0.75;52.56;100107.56;5322444;32;34319;-66
2021/12/27 04:16:26;;;;;;;32.38;15.02;;;;;;;0.77;52.15;100110.97;5349427;32;33915;-67
2021/12/27 04:19:28;;;;;;;33.03;14.60;;;;;;;0.90;52.51;100112.69;5342147;32;33924;-66
2021/12/27 04:22:34;;;;;;;27.37;13.53;;;;;;;1.16;51.78;100104.78;5362260;32;31894;-67
2021/12/27 04:25:52;;;;;;;28.07;13.87;;;;;;;0.87;51.38;100110.09;5334247;32;34699;-67
2021/12/27 04:28:56;;;;;;;30.83;14.33;;;;;;;1.01;51.48;100108.28;5371277;32;34185;-66
2021/12/27 04:31:59;;;;;;;26.97;13.20;;;;;;;1.13;51.04;100099.62;5343109;32;33482;-66
2021/12/27 04:35:08;;;;;;;29.85;13.95;;;;;;;1.48;50.10;100098.53;5334610;32;35647;-62
2021/12/27 04:38:16;;;;;;;25.55;13.10;;;;;;;1.23;50.82;100098.72;5371459;32;35990;-67
2021/12/27 04:41:21;;;;;;;31.10;14.23;;;;;;;1.11;51.81;100097.91;5356940;32;35319;-67
2021/12/27 04:44:28;;;;;;;28.67;13.00;;;;;;;1.35;51.07;100092.56;5390841;32;34214;-61
2021/12/27 04:47:35;;;;;;;27.70;14.13;;;;;;;1.11;51.50;100097.91;5378522;32;33870;-61
2021/12/27 04:50:38;;;;;;;27.13;13.77;;;;;;;1.34;50.92;100101.22;5383011;32;35147;-66
2021/12/27 04:53:46;;;;;;;25.70;12.67;;;;;;;1.03;51.96;100103.09;5367064;32;34097;-61
2021/12/27 04:56:52;;;;;;;25.63;12.50;;;;;;;0.98;51.97;100095.38;5358561;32;33025;-61
2021/12/27 05:00:01;;;;;;;25.57;12.17;;;;;;;0.96;51.61;100097.09;5385427;32;33120;-61
2021/12/27 05:03:06;;;;;;;25.27;11.93;;;;;;;0.90;51.91;100097.16;5395875;32;33790;-67
2021/12/27 05:06:20;;;;;;;25.23;11.47;;;;;;;1.52;50.69;100101.09;5366033;32;34616;-61
2021/12/27 05:09:26;;;;;;;24.07;11.27;;;;;;;0.64;52.61;100105.00;5336963;33;34667;-61
2021/12/27 05:12:29;;;;;;;24.43;11.90;;;;;;;0.56;52.75;100101.56;5335707;33;33117;-66
2021/12/27 05:15:31;;;;;;;24.97;11.80;;;;;;;0.57;53.16;100112.78;5340220;33;34527;-66
2021/12/27 05:18:41;;;;;;;26.97;13.13;;;;;;;1.04;51.94;100110.03;5339351;33;33954;-61
2021/12/27 05:21:46;;;;;;;25.57;11.50;;;;;;;0.65;52.45;100111.06;5343065;33;33775;-63
2021/12/27 05:24:50;;;;;;;26.77;12.73;;;;;;;0.27;54.33;100114.59;5337260;33;34760;-67
2021/12/27 05:28:09;;;;;;;25.53;11.80;;;;;;;0.73;52.99;100102.38;5349201;33;33932;-62
2021/12/27 05:31:12;;;;;;;26.83;12.33;;;;;;;0.88;51.98;100100.59;5346932;33;33245;-67
2021/12/27 05:34:16;;;;;;;26.37;11.70;;;;;;;1.43;51.01;100097.72;5329546;33;35432;-61
2021/12/27 05:37:20;;;;;;;18.50;10.00;;;;;;;1.85;49.23;100088.75;5334143;33;35038;-62
2021/12/27 05:40:27;;;;;;;24.00;12.07;;;;;;;0.51;53.19;100108.47;5364746;32;35008;-62
2021/12/27 05:43:30;;;;;;;26.47;12.17;;;;;;;0.74;52.61;100106.69;5367246;32;34929;-62
2021/12/27 05:46:33;;;;;;;29.20;11.23;;;;;;;0.57;53.45;100110.19;5365361;32;33239;-67
2021/12/27 05:49:37;;;;;;;22.40;11.20;;;;;;;0.87;52.45;100102.31;5379105;32;35059;-61
2021/12/27 05:52:40;;;;;;;21.07;9.90;;;;;;;1.05;51.46;100097.06;5367584;32;34340;-69
2021/12/27 05:55:50;;;;;;;26.07;10.87;;;;;;;0.82;51.73;100104.94;5383582;32;34245;-60
2021/12/27 05:58:53;;;;;;;34.77;10.63;;;;;;;0.98;51.57;100099.69;5366793;32;34134;-61
2021/12/27 06:01:59;;;;;;;20.83;9.97;;;;;;;0.91;51.34;100101.47;5376716;32;35374;-66
2021/12/27 06:05:04;;;;;;;21.90;10.13;;;;;;;0.47;52.00;100102.47;5380488;32;33864;-61
2021/12/27 06:08:10;;;;;;;20.33;10.30;;;;;;;0.79;50.89;100093.75;5368334;32;35589;-68
2021/12/27 06:11:12;;;;;;;21.70;9.47;;;;;;;1.20;49.39;100090.09;5359358;32;35107;-66
2021/12/27 06:14:17;;;;;;;20.62;10.27;;;;;;;1.70;48.54;100088.88;5366210;32;33419;-68
2021/12/27 06:17:24;;;;;;;21.63;10.60;;;;;;;1.95;47.95;100095.59;5382347;32;35147;-62
2021/12/27 06:20:37;;;;;;;20.27;9.80;;;;;;;1.89;48.24;100087.87;5366804;32;33976;-67
2021/12/27 06:23:40;;;;;;;19.10;10.40;;;;;;;1.20;50.12;100082.31;5368749;32;34824;-66
2021/12/27 06:26:42;;;;;;;21.90;9.83;;;;;;;0.65;52.19;100086.03;5380756;32;35210;-66
2021/12/27 06:29:46;;;;;;;22.33;11.93;;;;;;;0.57;52.60;100082.59;5399958;32;34094;-66
2021/12/27 06:32:54;;;;;;;21.48;9.77;;;;;;;1.12;51.58;100074.59;5373238;32;34272;-61
2021/12/27 06:35:58;;;;;;;20.70;10.37;;;;;;;1.86;49.93;100075.78;5370271;32;34127;-61
2021/12/27 06:39:08;;;;;;;23.70;10.30;;;;;;;1.67;50.14;100078.53;5350775;32;34759;-66
2021/12/27 06:42:10;;;;;;;27.83;11.53;;;;;;;2.34;48.89;100077.94;5361086;32;34497;-67
2021/12/27 06:45:19;;;;;;;21.03;10.00;;;;;;;2.05;48.51;100084.25;5381441;32;35329;-62
2021/12/27 06:48:23;;;;;;;22.10;10.53;;;;;;;2.44;47.49;100076.94;5368187;32;33205;-66
2021/12/27 06:51:30;;;;;;;;;;;;;;;1.54;50.83;100077.78;5389202;32;34280;-62
2021/12/27 06:54:43;;;;;;;23.73;12.37;;;;;;;1.02;52.18;100078.09;5372145;32;33978;-68
2021/12/27 06:57:45;;;;;;;24.43;11.07;;;;;;;1.42;51.16;100072.66;5380900;32;34026;-62
2021/12/27 07:00:50;;;;;;;19.90;10.83;;;;;;;2.24;49.24;100078.91;5389096;32;34847;-67
2021/12/27 07:03:55;;;;;;;23.37;11.77;;;;;;;2.20;49.05;100072.91;5372223;32;33081;-63
2021/12/27 07:07:03;;;;;;;22.10;10.43;;;;;;;2.18;49.23;100072.03;5378373;32;33979;-60
2021/12/27 07:10:10;;;;;;;22.85;10.57;;;;;;;2.55;48.43;100069.91;5364826;32;34323;-61
2021/12/27 07:13:15;;;;;;;23.70;10.90;;;;;;;1.43;51.57;100077.87;5369615;32;33999;-62
2021/12/27 07:16:25;;;;;;;27.73;11.63;;;;;;;2.10;50.02;100077.28;5361576;32;33991;-62
2021/12/27 07:19:31;;;;;;;29.40;11.33;;;;;;;1.84;50.61;100074.09;5360147;32;34866;-61
2021/12/27 07:22:35;;;;;;;24.20;10.87;;;;;;;1.98;49.36;100077.41;5392338;32;34994;-62
2021/12/27 07:25:47;;;;;;;25.27;10.57;;;;;;;1.11;51.42;100079.78;5373428;32;33179;-62
2021/12/27 07:28:52;;;;;;;24.37;11.47;;;;;;;2.12;48.78;100075.53;5390361;32;35621;-61
2021/12/27 07:31:59;;;;;;;23.07;11.60;;;;;;;0.92;52.29;100072.13;5373199;32;34784;-61
2021/12/27 07:35:15;;;;;;;23.13;11.57;;;;;;;1.07;52.41;100074.63;5362662;32;34096;-62
2021/12/27 07:38:19;;;;;;;27.40;12.33;;;;;;;1.18;52.31;100073.72;5380932;32;34278;-66
2021/12/27 07:41:22;;;;;;;21.30;10.37;;;;;;;1.39;52.35;100083.94;5345560;32;33377;-62
2021/12/27 07:44:28;;;;;;;22.50;11.43;;;;;;;1.26;51.66;100083.12;5367678;32;35112;-61
2021/12/27 07:47:31;;;;;;;25.60;11.32;;;;;;;1.19;52.31;100083.19;5379659;32;35143;-67
2021/12/27 07:50:38;;;;;;;20.35;10.57;;;;;;;1.52;51.36;100082.97;5363379;32;33926;-66
2021/12/27 07:53:47;;;;;;;22.23;10.63;;;;;;;2.61;47.38;100069.84;5368600;32;33349;-62
2021/12/27 07:56:52;;;;;;;21.37;10.73;;;;;;;2.51;47.89;100070.81;5370113;32;33952;-62
2021/12/27 08:00:00;;;;;;;27.83;11.60;;;;;;;2.01;48.85;100081.72;5386839;32;34825;-67
2021/12/27 08:03:09;;;;;;;20.63;11.07;;;;;;;1.37;50.35;100074.47;5373878;32;35235;-60
2021/12/27 08:06:20;;;;;;;24.40;11.38;;;;;;;1.78;48.45;100080.19;5359313;32;33652;-66
2021/12/27 08:09:28;;;;;;;21.20;11.07;;;;;;;0.91;50.50;100077.31;5363606;32;35422;-62
2021/12/27 08:12:31;;;;;;;20.60;9.97;;;;;;;1.73;49.83;100076.75;5378861;32;33328;-62
2021/12/27 08:15:36;;;;;;;20.63;10.97;;;;;;;1.84;49.66;100069.75;5386147;32;33272;-61
2021/12/27 08:18:42;;;;;;;20.23;9.53;;;;;;;1.62;49.88;100058.72;5371236;32;34200;-63
2021/12/27 08:21:48;;;;;;;21.60;10.63;;;;;;;1.14;49.50;100067.69;5338419;33;34760;-61
2021/12/27 08:24:52;;;;;;;21.37;9.63;;;;;;;1.63;48.60;100063.03;5323155;33;34329;-67
2021/12/27 08:27:56;;;;;;;23.73;10.15;;;;;;;1.96;47.04;100061.03;5340958;33;34904;-68
2021/12/27 08:31:00;;;;;;;19.45;10.18;;;;;;;2.30;46.65;100055.50;5333905;33;33659;-68
2021/12/27 08:34:19;;;;;;;21.37;9.87;;;;;;;1.88;46.69;100055.91;5338659;33;33281;-61
2021/12/27 08:37:34;;;;;;;21.27;10.50;;;;;;;2.00;47.10;100059.28;5316179;33;34301;-67
2021/12/27 08:40:37;;;;;;;19.85;10.05;;;;;;;2.20;46.56;100066.84;5337760;33;33047;-67
2021/12/27 08:43:40;;;;;;;21.53;10.20;;;;;;;1.77;47.58;100072.41;5333165;33;34588;-61
2021/12/27 08:46:44;;;;;;;21.27;10.27;;;;;;;2.98;44.99;100059.00;5357662;33;35149;-65
2021/12/27 08:49:47;;;;;;;20.92;9.65;;;;;;;2.38;45.51;100066.63;5343114;33;33108;-61
2021/12/27 08:53:05;;;;;;;20.67;9.10;;;;;;;2.08;45.95;100076.47;5342783;33;35335;-68
2021/12/27 08:56:14;;;;;;;20.10;9.37;;;;;;;3.26;43.27;100075.06;5315395;33;36504;-62
2021/12/27 08:59:21;;;;;;;18.33;9.60;;;;;;;2.77;43.72;100085.22;5376492;32;34918;-61
2021/12/27 09:02:31;;;;;;;16.60;8.53;;;;;;;3.54;41.51;100078.09;5367539;32;33881;-61
2021/12/27 09:05:40;;;;;;;25.23;10.27;;;;;;;3.26;40.34;100080.25;5379791;32;33066;-68
2021/12/27 09:08:42;;;;;;;23.30;9.97;;;;;;;3.17;42.82;100076.06;5396183;32;33952;-62
2021/12/27 09:11:45;;;;;;;19.70;10.23;;;;;;;3.47;42.56;100073.88;5384342;32;34898;-62
2021/12/27 09:14:50;;;;;;;19.58;9.60;;;;;;;3.74;40.80;100067.41;5381199;32;34829;-62
2021/12/27 09:17:54;;;;;;;20.37;10.00;;;;;;;3.35;41.10;100069.75;5387097;32;34929;-68
2021/12/27 09:20:57;;;;;;;22.90;10.27;;;;;;;2.74;42.14;100072.28;5368880;32;33834;-61
2021/12/27 09:24:01;;;;;;;22.43;10.40;;;;;;;2.42;43.14;100068.31;5393191;32;35059;-62
2021/12/27 09:27:06;;;;;;;22.47;9.80;;;;;;;3.17;42.67;100067.41;5373610;32;33895;-64
2021/12/27 09:30:11;;;;;;;25.07;10.40;;;;;;;3.49;39.80;100047.00;5378277;32;33222;-66
2021/12/27 09:33:16;;;;;;;22.20;9.87;;;;;;;3.22;40.80;100063.87;5364543;32;34699;-69
2021/12/27 09:36:25;;;;;;;;;;;;;;;3.95;39.04;100055.78;5369706;32;32895;-61
2021/12/27 09:39:43;;;;;;;18.67;9.03;;;;;;;4.48;36.28;100046.97;5379992;32;35446;-67
2021/12/27 09:43:00;;;;;;;29.53;15.77;;;;;;;2.20;40.69;100053.87;5360075;32;34224;-62
2021/12/27 09:46:18;;;;;;;23.17;10.73;;;;;;;2.38;42.22;100044.19;5383446;32;34608;-62
2021/12/27 09:49:29;;;;;;;25.50;10.77;;;;;;;3.12;41.44;100046.69;5373356;32;34607;-67
2021/12/27 09:52:38;;;;;;;21.17;10.23;;;;;;;2.89;42.62;100035.75;5361729;32;34447;-61
2021/12/27 09:55:52;;;;;;;18.17;7.90;;;;;;;3.16;42.77;100043.16;5389632;32;35180;-62
2021/12/27 09:58:58;;;;;;;17.73;8.77;;;;;;;2.40;40.43;100036.38;5378281;32;34228;-61
2021/12/27 10:02:03;;;;;;;18.57;7.97;;;;;;;3.74;37.14;100028.41;5390765;32;33931;-67
2021/12/27 10:05:06;;;;;;;15.53;6.63;;;;;;;3.43;35.19;100028.06;5378594;32;34460;-67
2021/12/27 10:08:09;;;;;;;21.08;8.27;;;;;;;4.31;33.50;100020.41;5398928;32;34752;-62
2021/12/27 10:11:29;;;;;;;22.17;8.90;;;;;;;3.53;35.24;100027.84;5362470;32;34185;-61
2021/12/27 10:14:33;;;;;;;16.60;8.13;;;;;;;3.97;35.52;100015.84;5372887;32;34972;-61
2021/12/27 10:17:38;;;;;;;19.87;8.73;;;;;;;3.82;36.12;100016.13;5384436;32;33470;-61
2021/12/27 10:20:45;;;;;;;18.42;8.00;;;;;;;2.29;38.16;100015.72;5380662;32;34990;-61
2021/12/27 10:23:50;;;;;;;16.00;8.17;;;;;;;3.34;37.19;100020.37;5379524;32;34594;-61
2021/12/27 10:27:00;;;;;;;18.43;9.37;;;;;;;3.73;35.72;100024.06;5368146;32;33320;-67
2021/12/27 10:30:11;;;;;;;20.47;9.47;;;;;;;3.02;36.94;100019.13;5362901;32;34585;-62
2021/12/27 10:33:23;;;;;;;20.63;8.63;;;;;;;3.49;37.03;100015.81;5370748;32;33875;-61
2021/12/27 10:36:28;;;;;;;19.70;9.23;;;;;;;3.31;36.94;100015.25;5366940;32;34936;-66
2021/12/27 10:39:54;;;;;;;16.13;8.63;;;;;;;4.94;34.14;100003.50;5391627;32;34139;-67
2021/12/27 10:43:02;;;;;;;22.33;8.77;;;;;;;3.90;35.93;100014.25;5389781;32;34078;-62
2021/12/27 10:46:10;;;;;;;18.70;7.80;;;;;;;3.39;35.82;100008.19;5370894;32;33966;-67
2021/12/27 10:49:21;;;;;;;19.05;8.35;;;;;;;3.10;35.92;100001.72;5372489;32;34896;-66
2021/12/27 10:52:48;;;;;;;15.43;7.97;;;;;;;3.76;34.99;100011.03;5379598;32;34663;-68
2021/12/27 10:55:54;;;;;;;16.30;7.77;;;;;;;3.46;34.85;100012.41;5376549;32;33033;-67
2021/12/27 10:59:00;;;;;;;17.02;8.30;;;;;;;3.44;34.35;100014.19;5352450;32;34838;-60
2021/12/27 11:02:11;;;;;;;18.37;7.93;;;;;;;3.91;35.09;100007.31;5362048;32;34669;-61
2021/12/27 11:05:23;;;;;;;16.77;7.70;;;;;;;4.60;33.71;100002.47;5376767;32;33536;-67
2021/12/27 11:08:26;;;;;;;16.83;8.53;;;;;;;4.47;33.89;100002.78;5387119;32;34030;-69
2021/12/27 11:11:30;;;;;;;19.17;8.47;;;;;;;4.75;33.30;99990.88;5385184;32;34754;-68
2021/12/27 11:14:33;;;;;;;20.63;11.20;;;;;;;3.33;36.24;99998.75;5381186;32;35077;-67
2021/12/27 11:17:38;;;;;;;19.10;10.27;;;;;;;3.03;37.87;99989.69;5373336;32;33984;-62
2021/12/27 11:20:50;;;;;;;23.03;9.57;;;;;;;4.38;35.35;99989.94;5379906;32;33906;-62
2021/12/27 11:23:56;;;;;;;21.50;9.87;;;;;;;3.68;36.83;99995.59;5384870;32;36617;-67
2021/12/27 11:27:12;;;;;;;22.83;9.37;;;;;;;3.40;36.06;99989.97;5390115;32;33995;-62
2021/12/27 11:30:22;;;;;;;18.23;8.20;;;;;;;4.08;35.07;99992.25;5373842;32;33746;-61
2021/12/27 11:33:30;;;;;;;18.30;7.83;;;;;;;4.02;33.78;99979.38;5358599;32;33315;-61
2021/12/27 11:36:41;;;;;;;17.93;8.27;;;;;;;3.44;34.52;99983.00;5389025;32;33991;-68
2021/12/27 11:39:44;;;;;;;16.90;8.60;;;;;;;4.13;33.43;99982.62;5363411;32;33798;-68
2021/12/27 11:43:01;;;;;;;20.80;8.93;;;;;;;5.97;31.38;99967.09;5377787;32;34915;-61
2021/12/27 11:46:06;;;;;;;17.17;7.87;;;;;;;4.40;34.53;99981.22;5389012;32;34584;-67
2021/12/27 11:49:11;;;;;;;15.57;7.70;;;;;;;3.40;35.19;99978.72;5360708;32;34034;-61
2021/12/27 11:52:19;;;;;;;14.23;6.77;;;;;;;4.76;31.83;99966.56;5390979;32;33966;-61
2021/12/27 11:55:39;;;;;;;12.30;5.23;;;;;;;5.31;29.62;99959.22;5367538;32;34171;-62
2021/12/27 11:58:45;;;;;;;11.47;5.40;;;;;;;4.59;28.88;99961.72;5378681;32;35117;-66
2021/12/27 12:01:54;;;;;;;14.97;7.03;;;;;;;4.01;28.71;99964.66;5384326;32;34728;-61
2021/12/27 12:04:58;;;;;;;14.57;6.77;;;;;;;4.63;29.70;99954.69;5358166;33;34111;-67
2021/12/27 12:08:01;;;;;;;15.40;6.80;;;;;;;3.78;31.49;99949.47;5377094;32;34904;-68
2021/12/27 12:11:06;;;;;;;11.50;5.87;;;;;;;3.35;31.78;99955.44;5357953;32;32642;-67
2021/12/27 12:14:33;;;;;;;15.53;6.43;;;;;;;3.52;30.17;99934.34;5379721;32;33868;-61
2021/12/27 12:17:40;;;;;;;18.53;7.80;;;;;;;4.00;30.84;99943.00;5361665;32;33217;-67
2021/12/27 12:20:42;;;;;;;17.77;6.93;;;;;;;4.48;30.50;99945.47;5382168;32;35146;-62
2021/12/27 12:23:59;;;;;;;16.53;6.70;;;;;;;3.96;30.35;99935.28;5375379;32;34776;-68
2021/12/27 12:27:08;;;;;;;15.73;7.37;;;;;;;4.01;30.42;99929.09;5371542;32;35314;-68
2021/12/27 12:30:14;;;;;;;15.43;7.07;;;;;;;3.59;32.34;99922.97;5385860;32;34915;-63
2021/12/27 12:33:19;;;;;;;16.27;7.70;;;;;;;4.63;31.26;99915.66;5376860;32;36352;-63
2021/12/27 12:36:24;;;;;;;20.57;8.30;;;;;;;4.69;31.09;99920.72;5367343;32;34259;-63
2021/12/27 12:39:36;;;;;;;13.50;6.53;;;;;;;4.61;30.63;99915.69;5356542;32;35097;-62
2021/12/27 12:42:39;;;;;;;18.93;7.13;;;;;;;5.41;29.52;99913.81;5381159;32;34166;-62
2021/12/27 12:45:42;;;;;;;15.35;7.20;;;;;;;4.60;30.17;99910.53;5389533;32;34481;-68
2021/12/27 12:49:01;;;;;;;15.17;6.77;;;;;;;3.95;31.57;99911.03;5377809;32;35262;-67
2021/12/27 12:52:08;;;;;;;17.20;7.10;;;;;;;4.76;30.65;99911.88;5377799;32;34810;-67
2021/12/27 12:55:13;;;;;;;18.83;6.33;;;;;;;4.80;30.17;99913.53;5371300;32;34626;-68
2021/12/27 12:58:18;;;;;;;16.23;6.00;;;;;;;3.72;29.69;99913.19;5379857;32;36688;-63
2021/12/27 13:01:21;;;;;;;16.13;5.67;;;;;;;3.78;29.35;99918.28;5368288;32;33948;-66
2021/12/27 13:04:24;;;;;;;14.07;5.43;;;;;;;4.53;27.69;99909.81;5382890;32;34742;-68
2021/12/27 13:07:45;;;;;;;15.70;6.10;;;;;;;3.66;28.62;99921.09;5394929;32;33858;-62
2021/12/27 13:10:55;;;;;;;10.83;4.83;;;;;;;4.21;27.51;99907.03;5387109;32;34710;-67
2021/12/27 13:14:00;;;;;;;16.03;5.90;;;;;;;3.76;27.96;99918.31;5373726;32;32396;-67
2021/12/27 13:17:16;;;;;;;12.90;5.20;;;;;;;3.42;28.12;99914.63;5375962;32;34115;-66
2021/12/27 13:20:25;;;;;;;21.05;5.10;;;;;;;3.82;27.91;99906.09;5383592;32;36914;-67
2021/12/27 13:23:32;;;;;;;16.10;6.47;;;;;;;3.74;28.22;99908.84;5374916;32;34530;-68
2021/12/27 13:26:39;;;;;;;12.23;5.03;;;;;;;3.22;29.30;99913.22;5373259;32;35229;-67
2021/12/27 13:29:46;;;;;;;15.40;5.53;;;;;;;3.01;29.66;99917.91;5379617;32;34022;-68
2021/12/27 13:32:57;;;;;;;14.40;5.53;;;;;;;3.85;28.83;99908.63;5357221;32;34423;-62
2021/12/27 13:36:05;;;;;;;14.63;5.50;;;;;;;3.40;28.45;99906.84;5354742;32;33990;-67
2021/12/27 13:39:27;;;;;;;16.13;5.57;;;;;;;4.42;27.67;99905.72;5368815;32;35146;-62
2021/12/27 13:42:30;;;;;;;14.63;5.83;;;;;;;4.89;27.29;99896.81;5362950;32;35174;-67
2021/12/27 13:45:44;;;;;;;11.20;5.20;;;;;;;4.14;28.90;99901.09;5384753;32;35433;-67
2021/12/27 13:48:51;;;;;;;13.70;5.17;;;;;;;3.67;28.54;99905.50;5372589;32;33565;-62
2021/12/27 13:52:17;;;;;;;13.97;4.97;;;;;;;3.91;27.71;99904.16;5360139;32;34338;-66
2021/12/27 13:55:29;;;;;;;13.20;5.17;;;;;;;4.19;27.12;99901.03;5375258;32;33471;-68
2021/12/27 13:58:41;;;;;;;12.50;5.27;;;;;;;4.03;27.48;99911.72;5387049;32;33474;-67
2021/12/27 14:02:00;;;;;;;17.47;6.17;;;;;;;3.18;28.86;99915.91;5386962;32;34908;-62
2021/12/27 14:05:07;;;;;;;14.40;5.93;;;;;;;3.83;28.46;99906.06;5375127;32;34658;-67
2021/12/27 14:08:12;;;;;;;13.30;5.77;;;;;;;4.71;27.80;99903.34;5365889;32;32944;-67
2021/12/27 14:11:16;;;;;;;11.53;5.67;;;;;;;4.51;28.28;99909.00;5389890;32;34532;-68
2021/12/27 14:14:43;;;;;;;13.57;6.05;;;;;;;3.75;29.25;99918.34;5389174;32;34762;-67
2021/12/27 14:17:49;;;;;;;15.10;6.20;;;;;;;3.98;29.18;99917.91;5359266;32;34395;-68
2021/12/27 14:21:04;;;;;;;19.77;7.43;;;;;;;3.83;29.93;99920.81;5400097;32;34218;-63
2021/12/27 14:24:11;;;;;;;15.83;6.97;;;;;;;3.47;31.15;99915.38;5387504;32;35075;-67
2021/12/27 14:27:25;;;;;;;17.60;7.13;;;;;;;4.69;29.75;99910.31;5379509;32;34241;-61
2021/12/27 14:30:43;;;;;;;16.77;6.75;;;;;;;4.45;30.27;99921.28;5361580;32;33186;-67
2021/12/27 14:33:53;;;;;;;19.10;7.20;;;;;;;3.71;31.98;99914.09;5378866;32;34400;-67
2021/12/27 14:36:59;;;;;;;16.20;7.27;;;;;;;2.97;33.04;99923.16;5392243;32;33796;-62